Time,TemperatureF,DewpointF,PressureIn,WindDirection,WindDirectionDegrees,WindSpeedMPH,WindSpeedGustMPH,Humidity,HourlyPrecipIn,Conditions,Clouds,dailyrainin,SolarRadiationWatts/m^2,SoftwareType,DateUTC
2013-02-19 00:02:00,36.0,17.0,-100.00,SSW,192,0.0,0.0,45,0.00,,,0.00,0.000000,,2013-02-19 05:02:00,
2013-02-19 00:13:00,36.0,17.0,-100.00,SSW,192,0.0,0.0,45,0.00,,,0.00,0.000000,,2013-02-19 05:13:00,
2013-02-19 00:43:00,36.0,18.0,-100.00,South,181,0.0,0.0,47,0.00,,,0.00,0.000000,,2013-02-19 05:43:00,
2013-02-19 00:52:00,36.0,18.0,-100.00,South,181,0.0,0.0,47,0.00,,,0.00,0.000000,,2013-02-19 05:52:00,
2013-02-19 01:03:00,36.0,18.0,-100.00,South,181,0.0,0.0,47,0.00,,,0.00,0.000000,,2013-02-19 06:03:00,
2013-02-19 01:12:00,36.0,18.0,-100.00,South,181,0.0,0.0,47,0.00,,,0.00,0.000000,,2013-02-19 06:12:00,
2013-02-19 01:42:00,38.0,19.0,-100.00,South,180,0.0,0.0,46,0.00,,,0.00,0.000000,,2013-02-19 06:42:00,
2013-02-19 01:53:00,38.0,19.0,-100.00,South,180,0.0,0.0,46,0.00,,,0.00,0.000000,,2013-02-19 06:53:00,
2013-02-19 02:02:00,38.0,19.0,-100.00,South,180,0.0,0.0,46,0.00,,,0.00,0.000000,,2013-02-19 07:02:00,
2013-02-19 02:12:00,38.0,19.0,-100.00,South,180,0.0,0.0,46,0.00,,,0.00,0.000000,,2013-02-19 07:12:00,
2013-02-19 02:42:00,35.0,18.0,-100.00,South,182,0.0,0.0,49,0.00,,,0.00,0.000000,,2013-02-19 07:42:00,
2013-02-19 02:52:00,35.0,18.0,-100.00,South,182,0.0,0.0,49,0.00,,,0.00,0.000000,,2013-02-19 07:52:00,
2013-02-19 03:02:00,35.0,18.0,-100.00,South,182,0.0,0.0,49,0.00,,,0.00,0.000000,,2013-02-19 08:02:00,
2013-02-19 03:11:00,35.0,18.0,-100.00,South,182,0.0,0.0,49,0.00,,,0.00,0.000000,,2013-02-19 08:11:00,
2013-02-19 03:42:00,34.0,18.0,-100.00,SSE,166,0.0,0.0,52,0.00,,,0.00,0.000000,,2013-02-19 08:42:00,
2013-02-19 03:52:00,34.0,18.0,-100.00,SSE,166,0.0,0.0,52,0.00,,,0.00,0.000000,,2013-02-19 08:52:00,
2013-02-19 04:02:00,34.0,18.0,-100.00,SSE,166,0.0,0.0,52,0.00,,,0.00,0.000000,,2013-02-19 09:02:00,
2013-02-19 04:11:00,34.0,18.0,-100.00,SSE,166,0.0,0.0,52,0.00,,,0.00,0.000000,,2013-02-19 09:11:00,
2013-02-19 04:42:00,36.0,20.0,-100.00,South,189,0.0,0.0,52,0.00,,,0.00,0.000000,,2013-02-19 09:42:00,
2013-02-19 04:53:00,36.0,20.0,-100.00,South,189,0.0,0.0,52,0.00,,,0.00,0.000000,,2013-02-19 09:53:00,
2013-02-19 05:02:00,36.0,20.0,-100.00,South,189,0.0,0.0,52,0.00,,,0.00,0.000000,,2013-02-19 10:02:00,
2013-02-19 05:11:00,36.0,20.0,-100.00,South,189,0.0,0.0,52,0.00,,,0.00,0.000000,,2013-02-19 10:11:00,
2013-02-19 05:42:00,36.0,21.0,-100.00,SSW,205,0.0,0.0,54,0.00,,,0.00,0.000000,,2013-02-19 10:42:00,
2013-02-19 05:52:00,36.0,21.0,-100.00,SSW,205,0.0,0.0,54,0.00,,,0.00,0.000000,,2013-02-19 10:52:00,
2013-02-19 06:01:00,36.0,21.0,-100.00,SSW,205,0.0,0.0,54,0.00,,,0.00,0.000000,,2013-02-19 11:01:00,
2013-02-19 06:11:00,36.0,21.0,-100.00,SSW,205,0.0,0.0,54,0.00,,,0.00,0.000000,,2013-02-19 11:11:00,
2013-02-19 06:42:00,37.0,20.0,-100.00,SSW,205,0.0,0.0,49,0.00,,,0.00,0.000000,,2013-02-19 11:42:00,
2013-02-19 06:52:00,37.0,20.0,-100.00,SSW,205,0.0,0.0,49,0.00,,,0.00,0.000000,,2013-02-19 11:52:00,
2013-02-19 07:02:00,37.0,20.0,-100.00,SSW,205,0.0,0.0,49,0.00,,,0.00,0.000000,,2013-02-19 12:02:00,
2013-02-19 07:12:00,37.0,20.0,-100.00,SSW,205,0.0,0.0,49,0.00,,,0.00,0.000000,,2013-02-19 12:12:00,
2013-02-19 07:42:00,33.0,30.0,-100.00,SSW,207,0.0,0.0,89,0.03,,,0.03,0.000000,,2013-02-19 12:42:00,
2013-02-19 07:53:00,33.0,30.0,-100.00,SSW,207,0.0,0.0,89,0.03,,,0.03,0.000000,,2013-02-19 12:53:00,
2013-02-19 08:02:00,33.0,30.0,-100.00,SSW,207,0.0,0.0,89,0.03,,,0.03,0.000000,,2013-02-19 13:02:00,
2013-02-19 08:11:00,33.0,30.0,-100.00,SSW,207,0.0,0.0,89,0.03,,,0.03,0.000000,,2013-02-19 13:11:00,
2013-02-19 08:42:00,33.0,32.0,-100.00,SSW,206,0.0,0.0,98,0.03,,,0.06,4.000000,,2013-02-19 13:42:00,
2013-02-19 08:52:00,33.0,32.0,-100.00,SSW,206,0.0,0.0,98,0.03,,,0.06,4.000000,,2013-02-19 13:52:00,
2013-02-19 09:02:00,33.0,32.0,-100.00,SSW,206,0.0,0.0,98,0.03,,,0.06,4.000000,,2013-02-19 14:02:00,
2013-02-19 09:12:00,33.0,32.0,-100.00,SSW,206,0.0,0.0,98,0.03,,,0.06,4.000000,,2013-02-19 14:12:00,
2013-02-19 09:42:00,34.0,33.0,-100.00,SSW,208,0.0,0.0,97,0.02,,,0.08,60.000000,,2013-02-19 14:42:00,
2013-02-19 09:52:00,34.0,33.0,-100.00,SSW,208,0.0,0.0,97,0.02,,,0.08,60.000000,,2013-02-19 14:52:00,
2013-02-19 10:02:00,34.0,33.0,-100.00,SSW,208,0.0,0.0,97,0.02,,,0.08,60.000000,,2013-02-19 15:02:00,
2013-02-19 10:11:00,34.0,33.0,-100.00,SSW,208,0.0,0.0,97,0.02,,,0.08,60.000000,,2013-02-19 15:11:00,
2013-02-19 10:42:00,36.0,33.0,-100.00,SSW,202,0.0,0.0,88,0.00,,,0.08,154.000000,,2013-02-19 15:42:00,
2013-02-19 10:52:00,36.0,33.0,-100.00,SSW,202,0.0,0.0,88,0.00,,,0.08,154.000000,,2013-02-19 15:52:00,
2013-02-19 11:02:00,36.0,33.0,-100.00,SSW,202,0.0,0.0,88,0.00,,,0.08,154.000000,,2013-02-19 16:02:00,
2013-02-19 11:11:00,36.0,33.0,-100.00,SSW,202,0.0,0.0,88,0.00,,,0.08,154.000000,,2013-02-19 16:11:00,
2013-02-19 11:42:00,37.0,32.0,-100.00,SW,218,0.0,0.0,81,0.00,,,0.08,293.000000,,2013-02-19 16:42:00,
2013-02-19 11:52:00,37.0,32.0,-100.00,SW,218,0.0,0.0,81,0.00,,,0.08,293.000000,,2013-02-19 16:52:00,
2013-02-19 12:01:00,37.0,32.0,-100.00,SW,218,0.0,0.0,81,0.00,,,0.08,293.000000,,2013-02-19 17:01:00,
2013-02-19 12:11:00,37.0,32.0,-100.00,SW,218,0.0,0.0,81,0.00,,,0.08,293.000000,,2013-02-19 17:11:00,
2013-02-19 12:42:00,40.0,36.0,-100.00,SW,220,0.0,0.0,85,0.00,,,0.08,309.000000,,2013-02-19 17:42:00,
2013-02-19 12:52:00,40.0,36.0,-100.00,SW,220,0.0,0.0,85,0.00,,,0.08,309.000000,,2013-02-19 17:52:00,
2013-02-19 13:02:00,40.0,36.0,-100.00,SW,220,0.0,0.0,85,0.00,,,0.08,309.000000,,2013-02-19 18:02:00,
2013-02-19 13:11:00,40.0,36.0,-100.00,SW,220,0.0,0.0,85,0.00,,,0.08,309.000000,,2013-02-19 18:11:00,
2013-02-19 13:42:00,44.0,34.0,-100.00,West,261,0.0,0.0,68,0.00,,,0.08,585.000000,,2013-02-19 18:42:00,
2013-02-19 13:52:00,44.0,34.0,-100.00,West,261,0.0,0.0,68,0.00,,,0.08,585.000000,,2013-02-19 18:52:00,
2013-02-19 14:01:00,44.0,34.0,-100.00,West,261,0.0,0.0,68,0.00,,,0.08,585.000000,,2013-02-19 19:01:00,
2013-02-19 14:11:00,44.0,34.0,-100.00,West,261,0.0,0.0,68,0.00,,,0.08,585.000000,,2013-02-19 19:11:00,
2013-02-19 14:42:00,42.0,32.0,-100.00,WSW,245,0.0,0.0,68,0.00,,,0.08,286.000000,,2013-02-19 19:42:00,
2013-02-19 14:52:00,42.0,32.0,-100.00,WSW,245,0.0,0.0,68,0.00,,,0.08,286.000000,,2013-02-19 19:52:00,
2013-02-19 15:02:00,42.0,32.0,-100.00,WSW,245,0.0,0.0,68,0.00,,,0.08,286.000000,,2013-02-19 20:02:00,
2013-02-19 15:12:00,42.0,32.0,-100.00,WSW,245,0.0,0.0,68,0.00,,,0.08,286.000000,,2013-02-19 20:12:00,
2013-02-19 15:42:00,36.0,26.0,-100.00,WNW,300,0.0,0.0,66,0.00,,,0.08,116.000000,,2013-02-19 20:42:00,
2013-02-19 15:52:00,36.0,26.0,-100.00,WNW,300,0.0,0.0,66,0.00,,,0.08,116.000000,,2013-02-19 20:52:00,
2013-02-19 16:02:00,36.0,26.0,-100.00,WNW,300,0.0,0.0,66,0.00,,,0.08,116.000000,,2013-02-19 21:02:00,
2013-02-19 16:11:00,36.0,26.0,-100.00,WNW,300,0.0,0.0,66,0.00,,,0.08,116.000000,,2013-02-19 21:11:00,
2013-02-19 16:42:00,38.0,25.0,-100.00,WNW,303,0.0,0.0,60,0.00,,,0.08,133.000000,,2013-02-19 21:42:00,
2013-02-19 16:52:00,38.0,25.0,-100.00,WNW,303,0.0,0.0,60,0.00,,,0.08,133.000000,,2013-02-19 21:52:00,
2013-02-19 17:02:00,38.0,25.0,-100.00,WNW,303,0.0,0.0,60,0.00,,,0.08,133.000000,,2013-02-19 22:02:00,
2013-02-19 17:11:00,38.0,25.0,-100.00,WNW,303,0.0,0.0,60,0.00,,,0.08,133.000000,,2013-02-19 22:11:00,
2013-02-19 17:42:00,34.0,21.0,-100.00,NW,309,0.0,0.0,59,0.00,,,0.08,131.000000,,2013-02-19 22:42:00,
2013-02-19 17:52:00,34.0,21.0,-100.00,NW,309,0.0,0.0,59,0.00,,,0.08,131.000000,,2013-02-19 22:52:00,
2013-02-19 18:01:00,34.0,21.0,-100.00,NW,309,0.0,0.0,59,0.00,,,0.08,131.000000,,2013-02-19 23:01:00,
2013-02-19 18:11:00,34.0,21.0,-100.00,NW,309,0.0,0.0,59,0.00,,,0.08,131.000000,,2013-02-19 23:11:00,
2013-02-19 18:42:00,30.0,26.0,-100.00,NW,307,0.0,0.0,85,0.00,,,0.08,18.000000,,2013-02-19 23:42:00,
2013-02-19 18:52:00,30.0,26.0,-100.00,NW,307,0.0,0.0,85,0.00,,,0.08,18.000000,,2013-02-19 23:52:00,
2013-02-19 19:02:00,30.0,26.0,-100.00,NW,307,0.0,0.0,85,0.00,,,0.08,18.000000,,2013-02-20 00:02:00,
2013-02-19 19:11:00,30.0,26.0,-100.00,NW,307,0.0,0.0,85,0.00,,,0.08,18.000000,,2013-02-20 00:11:00,
2013-02-19 19:42:00,28.0,26.0,-100.00,NW,319,0.0,0.0,91,0.00,,,0.08,0.000000,,2013-02-20 00:42:00,
2013-02-19 19:52:00,28.0,26.0,-100.00,NW,319,0.0,0.0,91,0.00,,,0.08,0.000000,,2013-02-20 00:52:00,
2013-02-19 20:02:00,28.0,26.0,-100.00,NW,319,0.0,0.0,91,0.00,,,0.08,0.000000,,2013-02-20 01:02:00,
2013-02-19 20:11:00,28.0,26.0,-100.00,NW,319,0.0,0.0,91,0.00,,,0.08,0.000000,,2013-02-20 01:11:00,
2013-02-19 20:42:00,28.0,20.0,-100.00,NW,310,0.0,0.0,73,0.00,,,0.08,0.000000,,2013-02-20 01:42:00,
2013-02-19 20:52:00,28.0,20.0,-100.00,NW,310,0.0,0.0,73,0.00,,,0.08,0.000000,,2013-02-20 01:52:00,
2013-02-19 21:02:00,28.0,20.0,-100.00,NW,310,0.0,0.0,73,0.00,,,0.08,0.000000,,2013-02-20 02:02:00,
2013-02-19 21:11:00,28.0,20.0,-100.00,NW,310,0.0,0.0,73,0.00,,,0.08,0.000000,,2013-02-20 02:11:00,
2013-02-19 21:42:00,26.0,19.0,-100.00,NW,312,0.0,0.0,76,0.00,,,0.08,0.000000,,2013-02-20 02:42:00,
2013-02-19 21:52:00,26.0,19.0,-100.00,NW,312,0.0,0.0,76,0.00,,,0.08,0.000000,,2013-02-20 02:52:00,
2013-02-19 22:02:00,26.0,19.0,-100.00,NW,312,0.0,0.0,76,0.00,,,0.08,0.000000,,2013-02-20 03:02:00,
2013-02-19 22:12:00,26.0,19.0,-100.00,NW,312,0.0,0.0,76,0.00,,,0.08,0.000000,,2013-02-20 03:12:00,
2013-02-19 22:42:00,25.0,17.0,-100.00,NW,306,0.0,0.0,71,0.00,,,0.08,0.000000,,2013-02-20 03:42:00,
2013-02-19 22:52:00,25.0,17.0,-100.00,NW,306,0.0,0.0,71,0.00,,,0.08,0.000000,,2013-02-20 03:52:00,
2013-02-19 23:01:00,25.0,17.0,-100.00,NW,306,0.0,0.0,71,0.00,,,0.08,0.000000,,2013-02-20 04:01:00,
2013-02-19 23:11:00,25.0,17.0,-100.00,NW,306,0.0,0.0,71,0.00,,,0.08,0.000000,,2013-02-20 04:11:00,
2013-02-19 23:42:00,24.0,18.0,-100.00,NW,310,0.0,0.0,77,0.00,,,0.08,0.000000,,2013-02-20 04:42:00,
2013-02-19 23:52:00,24.0,18.0,-100.00,NW,310,0.0,0.0,77,0.00,,,0.08,0.000000,,2013-02-20 04:52:00,